Time;durP1;ratioP1;P1;durP2;ratioP2;P2;SDS_P1;SDS_P2;PMS_P1;PMS_P2;Temp;Humidity;BMP_temperature;BMP_pressure;BME280_temperature;BME280_humidity;BME280_pressure;Samples;Min_cycle;Max_cycle;Signal;HPM_P1;HPM_P2
2023/04/04 00:01:24;;;;;;;6.68;2.50;;;5.90;99.90;;;;;;6247503;22;20034;-88
2023/04/04 00:03:50;;;;;;;9.13;2.53;;;5.80;99.90;;;;;;6249784;22;20420;-88
2023/04/04 00:06:18;;;;;;;5.13;2.70;;;5.80;99.90;;;;;;6249805;22;20019;-88
2023/04/04 00:08:43;;;;;;;8.57;2.90;;;5.80;99.90;;;;;;6248985;22;20016;-88
2023/04/04 00:11:09;;;;;;;6.95;2.70;;;5.80;99.90;;;;;;6276185;22;20022;-88
2023/04/04 00:13:35;;;;;;;5.95;2.70;;;5.80;99.90;;;;;;6249852;22;20046;-87
2023/04/04 00:16:01;;;;;;;7.45;2.75;;;5.70;99.90;;;;;;6248134;22;20035;-88
2023/04/04 00:18:26;;;;;;;5.72;2.63;;;5.70;99.90;;;;;;6249366;22;20070;-89
2023/04/04 00:20:52;;;;;;;7.40;2.90;;;5.70;99.90;;;;;;6277065;22;20004;-88
2023/04/04 00:23:18;;;;;;;7.90;3.05;;;5.60;99.90;;;;;;6248544;22;20024;-88
2023/04/04 00:25:49;;;;;;;5.78;2.65;;;5.60;99.90;;;;;;6277308;22;20022;-89
2023/04/04 00:28:15;;;;;;;7.03;2.58;;;5.60;99.90;;;;;;6249090;22;20026;-88
2023/04/04 00:30:41;;;;;;;7.05;2.55;;;5.50;99.90;;;;;;6248653;22;20019;-88
2023/04/04 00:33:07;;;;;;;8.20;2.85;;;5.60;99.90;;;;;;6249557;22;20512;-89
2023/04/04 00:35:33;;;;;;;8.13;3.00;;;5.60;99.90;;;;;;6276822;22;20020;-88
2023/04/04 00:37:59;;;;;;;6.78;2.70;;;5.50;99.90;;;;;;6248731;22;20008;-88
2023/04/04 00:40:24;;;;;;;6.88;2.97;;;5.40;99.90;;;;;;6276163;22;20011;-89
2023/04/04 00:42:50;;;;;;;5.07;2.67;;;5.40;99.90;;;;;;6276739;22;20055;-88
2023/04/04 00:45:16;;;;;;;6.97;2.55;;;5.40;99.90;;;;;;6248272;22;20333;-88
2023/04/04 00:47:43;;;;;;;6.95;3.20;;;5.40;99.90;;;;;;6249762;22;20094;-88
2023/04/04 00:50:09;;;;;;;8.93;2.90;;;5.30;99.90;;;;;;6248434;22;20436;-89
2023/04/04 00:52:35;;;;;;;8.10;3.22;;;5.30;99.90;;;;;;6249240;22;20069;-88
2023/04/04 00:55:00;;;;;;;10.98;3.28;;;5.30;99.90;;;;;;6249419;22;20012;-88
2023/04/04 00:57:28;;;;;;;6.57;2.90;;;5.20;99.90;;;;;;6247674;22;20122;-89
2023/04/04 00:59:56;;;;;;;10.07;3.13;;;5.20;99.90;;;;;;6249295;22;20121;-88
2023/04/04 01:02:23;;;;;;;7.30;3.17;;;5.20;99.90;;;;;;6249026;22;20011;-88
2023/04/04 01:04:49;;;;;;;7.38;2.80;;;5.10;99.90;;;;;;6248569;22;20016;-88
2023/04/04 01:07:15;;;;;;;5.70;2.75;;;5.10;99.90;;;;;;6249462;22;20316;-89
2023/04/04 01:09:41;;;;;;;10.35;3.63;;;5.10;99.90;;;;;;6249535;22;20114;-88
2023/04/04 01:12:07;;;;;;;7.15;3.20;;;5.00;99.90;;;;;;6275656;22;20023;-89
2023/04/04 01:14:33;;;;;;;6.82;3.35;;;5.00;99.90;;;;;;6248973;22;20016;-88
2023/04/04 01:17:01;;;;;;;8.30;3.30;;;5.00;99.90;;;;;;6276619;22;20083;-88
2023/04/04 01:19:33;;;;;;;10.45;3.25;;;5.00;99.90;;;;;;6247781;22;20439;-88
2023/04/04 01:22:00;;;;;;;7.95;3.10;;;4.90;99.90;;;;;;6276046;22;20012;-88
2023/04/04 01:24:31;;;;;;;7.53;3.00;;;4.90;99.90;;;;;;6248957;22;20015;-88
2023/04/04 01:26:57;;;;;;;8.00;3.35;;;4.80;99.90;;;;;;6247848;22;20023;-89
2023/04/04 01:29:22;;;;;;;9.57;3.97;;;4.80;99.90;;;;;;6248644;22;20019;-89
2023/04/04 01:32:03;;;;;;;9.40;3.33;;;4.80;99.90;;;;;;6275365;22;20015;-88
2023/04/04 01:34:52;;;;;;;6.78;3.25;;;4.80;99.90;;;;;;6248431;22;20008;-88
2023/04/04 01:37:32;;;;;;;9.00;3.15;;;4.70;99.90;;;;;;6249672;22;20011;-89
2023/04/04 01:40:15;;;;;;;8.52;3.28;;;4.70;99.90;;;;;;6276057;22;20015;-88
2023/04/04 01:42:43;;;;;;;9.35;3.53;;;4.70;99.90;;;;;;6249282;22;20016;-89
2023/04/04 01:45:09;;;;;;;7.93;3.35;;;4.60;99.90;;;;;;6249105;22;20019;-89
2023/04/04 01:47:39;;;;;;;7.40;3.60;;;4.60;99.90;;;;;;6248428;22;20011;-89
2023/04/04 01:50:07;;;;;;;7.07;3.70;;;4.60;99.90;;;;;;6248632;22;20023;-88
2023/04/04 01:52:33;;;;;;;8.65;3.38;;;4.50;99.90;;;;;;6250510;22;20020;-89
2023/04/04 01:54:59;;;;;;;9.48;3.60;;;4.50;99.90;;;;;;6276258;22;20054;-89
2023/04/04 01:57:25;;;;;;;8.15;3.40;;;4.50;99.90;;;;;;6251640;22;20024;-89
2023/04/04 01:59:50;;;;;;;6.55;3.28;;;4.40;99.90;;;;;;6250840;22;20011;-88
2023/04/04 02:02:16;;;;;;;9.90;3.70;;;4.40;99.90;;;;;;6249943;22;20062;-88
2023/04/04 02:04:42;;;;;;;11.32;4.13;;;4.40;99.90;;;;;;6278921;22;20011;-88
2023/04/04 02:07:07;;;;;;;8.98;3.55;;;4.40;99.90;;;;;;6251195;22;20016;-88
2023/04/04 02:09:33;;;;;;;8.88;3.63;;;4.40;99.90;;;;;;6277182;22;20012;-88
2023/04/04 02:11:59;;;;;;;8.05;3.38;;;4.30;99.90;;;;;;6251164;22;20019;-88
2023/04/04 02:14:25;;;;;;;8.25;3.58;;;4.30;99.90;;;;;;6250093;22;20012;-88
2023/04/04 02:16:50;;;;;;;8.48;3.80;;;4.30;99.90;;;;;;6277417;22;20347;-88
2023/04/04 02:19:16;;;;;;;8.77;3.53;;;4.20;99.90;;;;;;6250783;22;20020;-89
2023/04/04 02:21:42;;;;;;;5.88;3.45;;;4.20;99.90;;;;;;6277395;22;20027;-88
2023/04/04 02:24:07;;;;;;;10.10;4.00;;;4.20;99.90;;;;;;6278309;22;20040;-88
2023/04/04 02:26:33;;;;;;;8.52;3.70;;;4.10;99.90;;;;;;6250569;22;20016;-89
2023/04/04 02:28:58;;;;;;;7.28;3.67;;;4.10;99.90;;;;;;6277545;22;20007;-88
2023/04/04 02:31:24;;;;;;;8.43;4.47;;;4.10;99.90;;;;;;6276774;22;20077;-88
2023/04/04 02:33:50;;;;;;;7.03;3.47;;;4.10;99.90;;;;;;6277426;22;20011;-88
2023/04/04 02:36:15;;;;;;;7.53;3.63;;;4.10;99.90;;;;;;6249444;22;20387;-88
2023/04/04 02:38:41;;;;;;;9.50;4.00;;;4.10;99.90;;;;;;6250757;22;20042;-88
2023/04/04 02:41:07;;;;;;;8.48;3.63;;;4.10;99.90;;;;;;6278216;22;20047;-88
2023/04/04 02:43:32;;;;;;;7.75;3.53;;;4.10;99.90;;;;;;6249163;22;20027;-88
2023/04/04 02:45:58;;;;;;;7.68;3.55;;;4.10;99.90;;;;;;6250437;22;20027;-89
2023/04/04 02:48:24;;;;;;;8.73;3.55;;;4.00;99.90;;;;;;6249710;22;20008;-88
2023/04/04 02:50:50;;;;;;;7.55;3.72;;;4.00;99.90;;;;;;6276842;22;20061;-87
2023/04/04 02:53:16;;;;;;;8.38;4.00;;;4.00;99.90;;;;;;6250013;22;20051;-87
2023/04/04 02:55:42;;;;;;;7.97;3.80;;;4.00;99.90;;;;;;6278115;22;20087;-88
2023/04/04 02:58:07;;;;;;;7.07;3.75;;;4.00;99.90;;;;;;6249757;22;20094;-88
2023/04/04 03:00:33;;;;;;;6.65;3.72;;;4.00;99.90;;;;;;6277192;22;20012;-88
2023/04/04 03:02:58;;;;;;;9.75;4.10;;;3.90;99.90;;;;;;6250053;22;20102;-89
2023/04/04 03:05:25;;;;;;;7.03;3.45;;;3.90;99.90;;;;;;6275875;22;20309;-88
2023/04/04 03:07:56;;;;;;;8.60;3.53;;;3.90;99.90;;;;;;6250774;22;20012;-89
2023/04/04 03:10:26;;;;;;;8.52;4.03;;;3.90;99.90;;;;;;6277367;22;20367;-88
2023/04/04 03:12:52;;;;;;;9.45;3.55;;;3.90;99.90;;;;;;6276230;22;20015;-88
2023/04/04 03:15:18;;;;;;;9.20;3.67;;;3.80;99.90;;;;;;6250020;22;20011;-89
2023/04/04 03:17:44;;;;;;;6.82;3.80;;;3.80;99.90;;;;;;6277309;22;20020;-88
2023/04/04 03:20:14;;;;;;;8.23;3.70;;;3.80;99.90;;;;;;6276283;22;20019;-88
2023/04/04 03:22:40;;;;;;;8.55;3.78;;;3.80;99.90;;;;;;6250398;22;20030;-89
2023/04/04 03:25:07;;;;;;;7.03;3.55;;;3.80;99.90;;;;;;6249350;22;20015;-88
2023/04/04 03:27:33;;;;;;;8.38;3.67;;;3.80;99.90;;;;;;6276775;22;20439;-88
2023/04/04 03:29:59;;;;;;;7.00;3.42;;;3.70;99.90;;;;;;6249831;22;20390;-89
2023/04/04 03:32:25;;;;;;;8.50;3.97;;;3.70;99.90;;;;;;6249065;22;20023;-89
2023/04/04 03:34:53;;;;;;;6.45;3.35;;;3.70;99.90;;;;;;6250524;22;20035;-90
2023/04/04 03:37:19;;;;;;;6.60;3.70;;;3.70;99.90;;;;;;6250269;22;20016;-89
2023/04/04 03:39:45;;;;;;;6.38;3.10;;;3.70;99.90;;;;;;6276109;22;20019;-90
2023/04/04 03:42:11;;;;;;;5.85;2.80;;;3.60;99.90;;;;;;6250027;22;20055;-90
2023/04/04 03:44:40;;;;;;;6.35;3.42;;;3.60;99.90;;;;;;6250281;22;20020;-90
2023/04/04 03:47:06;;;;;;;7.35;3.50;;;3.50;99.90;;;;;;6249075;22;20022;-90
2023/04/04 03:49:32;;;;;;;7.95;3.75;;;3.50;99.90;;;;;;6277303;22;20008;-89
2023/04/04 03:51:58;;;;;;;8.07;3.55;;;3.40;99.90;;;;;;6250182;22;20394;-89
2023/04/04 03:54:23;;;;;;;7.57;3.42;;;3.50;99.90;;;;;;6248505;22;20012;-89
2023/04/04 03:56:51;;;;;;;6.97;3.42;;;3.40;99.90;;;;;;6277366;22;20065;-90
2023/04/04 03:59:16;;;;;;;9.45;3.70;;;3.40;99.90;;;;;;6249665;22;20019;-89
2023/04/04 04:01:42;;;;;;;5.75;3.13;;;3.30;99.90;;;;;;6248558;22;20023;-89
2023/04/04 04:04:08;;;;;;;6.72;3.63;;;3.30;99.90;;;;;;6277283;22;20015;-90
2023/04/04 04:06:33;;;;;;;6.82;3.38;;;3.30;99.90;;;;;;6248709;22;20023;-90
2023/04/04 04:09:00;;;;;;;6.03;3.30;;;3.20;99.90;;;;;;6276852;22;20008;-90
2023/04/04 04:11:25;;;;;;;6.05;3.30;;;3.20;99.90;;;;;;6277856;22;20023;-92
2023/04/04 04:13:51;;;;;;;6.25;3.30;;;3.10;99.90;;;;;;6278116;22;20012;-94
2023/04/04 04:16:16;;;;;;;10.88;3.47;;;3.10;99.90;;;;;;6276289;22;20023;-91
2023/04/04 04:18:42;;;;;;;5.85;3.13;;;3.10;99.90;;;;;;6250374;22;20024;-90
2023/04/04 04:21:08;;;;;;;7.45;3.40;;;3.10;99.90;;;;;;6278117;22;20098;-95
2023/04/04 04:23:34;;;;;;;7.80;3.40;;;3.00;99.90;;;;;;6252019;22;20022;-96
2023/04/04 04:25:59;;;;;;;7.88;3.15;;;3.00;99.90;;;;;;6279770;22;20072;-96
2023/04/04 04:28:25;;;;;;;7.70;3.35;;;3.00;99.90;;;;;;6279056;22;20455;-96
2023/04/04 04:30:51;;;;;;;6.78;3.28;;;2.90;99.90;;;;;;6280185;22;20016;-95
2023/04/04 04:33:17;;;;;;;7.45;3.15;;;2.90;99.90;;;;;;6280784;22;20416;-94
2023/04/04 04:35:43;;;;;;;8.05;3.55;;;2.90;99.90;;;;;;6279028;22;20073;-94
2023/04/04 04:38:09;;;;;;;6.60;3.30;;;2.80;99.90;;;;;;6253832;22;20015;-95
2023/04/04 04:40:41;;;;;;;8.57;3.20;;;2.80;99.90;;;;;;6282468;22;20015;-96
2023/04/04 04:43:07;;;;;;;6.55;3.38;;;2.80;99.90;;;;;;6235397;22;20049;-94
2023/04/04 04:45:32;;;;;;;7.00;3.20;;;2.80;99.90;;;;;;6249454;22;20054;-89
2023/04/04 04:47:58;;;;;;;6.75;3.35;;;2.80;99.90;;;;;;6250091;22;20019;-89
2023/04/04 04:50:24;;;;;;;7.18;3.10;;;2.70;99.90;;;;;;6248673;22;20012;-88
2023/04/04 04:52:51;;;;;;;7.60;3.30;;;2.70;99.90;;;;;;6250323;22;20094;-89
2023/04/04 04:55:17;;;;;;;6.85;3.60;;;2.70;99.90;;;;;;6249599;22;20051;-88
2023/04/04 04:57:43;;;;;;;7.47;3.38;;;2.70;99.90;;;;;;6249389;22;20347;-88
2023/04/04 05:00:09;;;;;;;6.60;3.30;;;2.70;99.90;;;;;;6249934;22;20027;-88
2023/04/04 05:02:35;;;;;;;6.25;3.13;;;2.70;99.90;;;;;;6250107;22;20058;-88
2023/04/04 05:05:00;;;;;;;6.82;3.10;;;2.60;99.90;;;;;;6249001;22;20448;-88
2023/04/04 05:07:26;;;;;;;7.72;3.33;;;2.60;99.90;;;;;;6249413;22;20050;-89
2023/04/04 05:09:52;;;;;;;8.20;3.50;;;2.60;99.90;;;;;;6277305;22;20012;-89
2023/04/04 05:12:18;;;;;;;7.50;3.45;;;2.60;99.90;;;;;;6275569;22;20026;-89
2023/04/04 05:14:43;;;;;;;6.47;3.30;;;2.60;99.90;;;;;;6249787;22;20019;-88
2023/04/04 05:17:09;;;;;;;6.97;3.40;;;2.60;99.90;;;;;;6276901;22;20501;-89
2023/04/04 05:19:35;;;;;;;6.78;2.95;;;2.60;99.90;;;;;;6249070;22;20008;-90
2023/04/04 05:22:00;;;;;;;7.18;3.50;;;2.60;99.90;;;;;;6249382;22;20035;-88
2023/04/04 05:24:26;;;;;;;6.93;3.20;;;2.60;99.90;;;;;;6276099;22;20023;-88
2023/04/04 05:26:52;;;;;;;7.78;3.50;;;2.60;99.90;;;;;;6276574;22;20073;-90
2023/04/04 05:29:17;;;;;;;7.97;3.67;;;2.60;99.90;;;;;;6249053;22;20047;-89
2023/04/04 05:31:43;;;;;;;9.10;3.15;;;2.50;99.90;;;;;;6276220;22;20099;-89
2023/04/04 05:34:08;;;;;;;7.20;3.10;;;2.50;99.90;;;;;;6249434;22;20396;-89
2023/04/04 05:36:35;;;;;;;6.50;3.38;;;2.50;99.90;;;;;;6249354;22;20020;-90
2023/04/04 05:39:03;;;;;;;7.35;3.20;;;2.50;99.90;;;;;;6276124;22;20087;-88
2023/04/04 05:41:29;;;;;;;6.93;3.20;;;2.50;99.90;;;;;;6249383;22;20011;-90
2023/04/04 05:43:55;;;;;;;6.68;3.33;;;2.50;99.90;;;;;;6276804;22;20011;-89
2023/04/04 05:46:20;;;;;;;6.47;2.97;;;2.50;99.90;;;;;;6248141;22;20022;-89
2023/04/04 05:48:46;;;;;;;5.97;3.00;;;2.50;99.90;;;;;;6249035;22;20015;-89
2023/04/04 05:51:12;;;;;;;6.45;3.50;;;2.40;99.90;;;;;;6249912;22;20016;-90
2023/04/04 05:53:37;;;;;;;6.55;3.20;;;2.40;99.90;;;;;;6249410;22;20022;-90
2023/04/04 05:56:03;;;;;;;6.75;3.50;;;2.40;99.90;;;;;;6277018;22;20012;-90
2023/04/04 05:58:29;;;;;;;7.00;3.40;;;2.40;99.90;;;;;;6276916;22;20427;-89
2023/04/04 06:00:54;;;;;;;8.52;3.20;;;2.40;99.90;;;;;;6275997;22;20012;-89
2023/04/04 06:03:20;;;;;;;6.20;3.20;;;2.40;99.90;;;;;;6276633;22;20023;-89
2023/04/04 06:05:52;;;;;;;8.07;3.28;;;2.40;99.90;;;;;;6276915;22;20507;-89
2023/04/04 06:08:18;;;;;;;6.30;3.05;;;2.40;99.90;;;;;;6276211;22;20011;-89
2023/04/04 06:10:43;;;;;;;6.65;2.97;;;2.40;99.90;;;;;;6250346;22;20015;-88
2023/04/04 06:13:09;;;;;;;8.82;3.33;;;2.30;99.90;;;;;;6276939;22;20043;-88
2023/04/04 06:15:35;;;;;;;5.93;3.08;;;2.30;99.90;;;;;;6248505;22;20008;-88
2023/04/04 06:18:01;;;;;;;5.82;3.17;;;2.30;99.90;;;;;;6249459;22;20390;-90
2023/04/04 06:20:26;;;;;;;6.53;2.97;;;2.30;99.90;;;;;;6276921;22;20099;-90
2023/04/04 06:22:53;;;;;;;7.43;3.28;;;2.30;99.90;;;;;;6248666;22;20027;-89
2023/04/04 06:25:18;;;;;;;6.47;3.42;;;2.30;99.90;;;;;;6249309;22;20065;-90
2023/04/04 06:27:44;;;;;;;6.38;3.45;;;2.30;99.90;;;;;;6274984;22;20047;-89
2023/04/04 06:30:10;;;;;;;7.85;3.40;;;2.30;99.90;;;;;;6249130;22;20069;-89
2023/04/04 06:32:36;;;;;;;9.88;3.15;;;2.30;99.90;;;;;;6275995;22;20016;-90
2023/04/04 06:35:03;;;;;;;6.53;3.40;;;2.30;99.90;;;;;;6248409;22;20023;-89
2023/04/04 06:37:29;;;;;;;7.18;3.28;;;2.30;99.90;;;;;;6276684;22;20055;-89
2023/04/04 06:39:54;;;;;;;6.00;3.35;;;2.30;99.90;;;;;;6251201;22;20023;-89
2023/04/04 06:42:20;;;;;;;7.15;3.83;;;2.30;99.90;;;;;;6250569;22;20015;-89
2023/04/04 06:44:46;;;;;;;7.32;3.20;;;2.30;99.90;;;;;;6278590;22;20279;-89
2023/04/04 06:47:12;;;;;;;9.40;3.70;;;2.40;99.90;;;;;;6250694;22;20015;-88
2023/04/04 06:49:38;;;;;;;6.50;3.47;;;2.40;99.90;;;;;;6277384;22;20015;-88
2023/04/04 06:52:04;;;;;;;8.98;3.25;;;2.50;99.90;;;;;;6277578;22;20024;-89
2023/04/04 06:54:30;;;;;;;8.60;3.58;;;2.50;99.90;;;;;;6250179;22;20023;-90
2023/04/04 06:56:56;;;;;;;7.47;3.33;;;2.60;99.90;;;;;;6249740;22;20020;-91
2023/04/04 06:59:21;;;;;;;8.75;3.63;;;2.70;99.90;;;;;;6277760;22;20089;-92
2023/04/04 07:01:47;;;;;;;6.10;3.17;;;2.70;99.90;;;;;;6251290;22;20019;-89
2023/04/04 07:04:13;;;;;;;6.15;3.15;;;2.80;99.90;;;;;;6248790;22;20018;-89
2023/04/04 07:06:38;;;;;;;5.68;3.28;;;2.90;99.90;;;;;;6250715;22;20069;-89
2023/04/04 07:09:04;;;;;;;6.78;2.70;;;2.90;99.90;;;;;;6277470;22;20332;-87
2023/04/04 07:11:30;;;;;;;6.15;2.88;;;3.00;99.90;;;;;;6249589;22;20020;-89
2023/04/04 07:13:55;;;;;;;5.15;2.47;;;3.10;99.90;;;;;;6250849;22;20015;-89
2023/04/04 07:16:21;;;;;;;5.97;2.80;;;3.10;99.90;;;;;;6250653;22;20019;-89
2023/04/04 07:18:47;;;;;;;5.38;3.00;;;3.20;99.90;;;;;;6249275;22;20019;-88
2023/04/04 07:21:12;;;;;;;6.05;3.03;;;3.30;99.90;;;;;;6277836;22;20388;-87
2023/04/04 07:23:38;;;;;;;6.22;2.72;;;3.30;99.90;;;;;;6250869;22;20011;-88
2023/04/04 07:26:03;;;;;;;7.93;3.28;;;3.40;99.90;;;;;;6249597;22;20015;-88
2023/04/04 07:28:30;;;;;;;6.72;2.90;;;3.50;99.90;;;;;;6276828;22;20398;-89
2023/04/04 07:31:02;;;;;;;6.05;3.10;;;3.60;99.90;;;;;;6249818;22;20019;-88
2023/04/04 07:33:28;;;;;;;7.20;2.67;;;3.70;99.90;;;;;;6277801;22;20015;-88
2023/04/04 07:35:54;;;;;;;7.38;2.60;;;3.80;99.90;;;;;;6277370;22;20428;-89
2023/04/04 07:38:19;;;;;;;8.10;2.70;;;4.00;99.90;;;;;;6249631;22;20069;-89
2023/04/04 07:40:47;;;;;;;8.20;2.85;;;4.00;99.90;;;;;;6250702;22;20022;-88
2023/04/04 07:43:13;;;;;;;9.77;2.83;;;4.20;99.90;;;;;;6250510;22;20020;-89
2023/04/04 07:45:39;;;;;;;7.57;2.67;;;4.30;99.90;;;;;;6249565;22;20031;-91
2023/04/04 07:48:05;;;;;;;7.40;2.67;;;4.40;99.90;;;;;;6250519;22;20044;-91
2023/04/04 07:50:31;;;;;;;6.65;2.72;;;4.50;99.90;;;;;;6249789;22;20062;-92
2023/04/04 07:52:57;;;;;;;7.93;2.50;;;4.50;99.90;;;;;;6277250;22;20023;-90
2023/04/04 07:55:24;;;;;;;5.65;2.55;;;4.60;99.90;;;;;;6277194;22;20011;-91
2023/04/04 07:57:51;;;;;;;6.38;2.50;;;4.70;99.90;;;;;;6249859;22;20384;-90
2023/04/04 08:00:20;;;;;;;5.30;2.33;;;4.80;99.90;;;;;;6249865;22;20476;-91
2023/04/04 08:02:57;;;;;;;6.55;2.60;;;4.90;99.90;;;;;;6250831;22;20145;-89
2023/04/04 08:05:23;;;;;;;7.85;2.50;;;5.00;99.90;;;;;;6249780;22;20061;-89
2023/04/04 08:07:49;;;;;;;5.57;2.50;;;5.10;99.90;;;;;;6276360;22;20012;-88
2023/04/04 08:10:18;;;;;;;5.15;2.42;;;5.20;99.90;;;;;;6250067;22;20012;-88
2023/04/04 08:12:44;;;;;;;5.85;2.25;;;5.40;99.90;;;;;;6249464;22;20027;-88
2023/04/04 08:15:10;;;;;;;4.07;2.30;;;5.50;99.90;;;;;;6276211;22;20023;-90
2023/04/04 08:17:37;;;;;;;4.60;2.30;;;5.60;99.90;;;;;;6277243;22;20023;-87
2023/04/04 08:20:03;;;;;;;5.25;2.55;;;5.70;99.90;;;;;;6249509;22;20016;-86
2023/04/04 08:22:29;;;;;;;6.85;2.25;;;5.80;99.90;;;;;;6275387;22;20512;-86
2023/04/04 08:24:55;;;;;;;5.45;2.40;;;5.80;99.90;;;;;;6276943;22;20013;-88
2023/04/04 08:27:21;;;;;;;5.13;2.50;;;5.90;99.90;;;;;;6243168;23;20402;-89
2023/04/04 08:29:47;;;;;;;7.00;2.33;;;6.00;99.90;;;;;;6246509;23;20051;-88
2023/04/04 08:32:13;;;;;;;5.07;2.17;;;6.10;99.90;;;;;;6218633;23;20012;-89
2023/04/04 08:34:40;;;;;;;7.85;2.30;;;6.20;99.90;;;;;;6246059;23;20016;-89
2023/04/04 08:37:06;;;;;;;5.68;2.13;;;6.30;99.90;;;;;;6219796;23;20020;-89
2023/04/04 08:39:32;;;;;;;5.32;2.10;;;6.40;99.90;;;;;;6219150;23;20123;-89
2023/04/04 08:42:04;;;;;;;5.65;2.22;;;6.50;99.90;;;;;;6218500;23;20452;-89
2023/04/04 08:44:30;;;;;;;6.13;2.08;;;6.60;99.90;;;;;;6246331;23;20262;-88
2023/04/04 08:46:58;;;;;;;4.75;2.28;;;6.70;99.90;;;;;;6219352;23;20087;-89
2023/04/04 08:49:26;;;;;;;5.40;2.08;;;6.80;99.90;;;;;;6218055;23;20445;-88
2023/04/04 08:51:55;;;;;;;5.13;1.92;;;6.80;99.90;;;;;;6245986;23;20574;-89
2023/04/04 08:54:23;;;;;;;4.03;1.88;;;6.90;99.90;;;;;;6219083;23;20019;-88
2023/04/04 08:56:49;;;;;;;7.55;2.20;;;7.00;99.90;;;;;;6218210;23;20046;-88
2023/04/04 08:59:15;;;;;;;5.40;2.00;;;7.10;99.90;;;;;;6218982;23;20387;-89
2023/04/04 09:01:41;;;;;;;6.90;2.03;;;7.10;99.90;;;;;;6218826;23;20065;-90
2023/04/04 09:04:08;;;;;;;4.45;2.00;;;7.20;99.90;;;;;;6218139;23;20393;-88
2023/04/04 09:06:34;;;;;;;5.03;2.03;;;7.30;99.90;;;;;;6245755;23;20027;-88
2023/04/04 09:09:00;;;;;;;6.40;1.90;;;7.40;99.90;;;;;;6218992;23;20016;-88
2023/04/04 09:11:29;;;;;;;6.25;1.83;;;7.50;99.90;;;;;;6245106;23;20047;-87
2023/04/04 09:13:56;;;;;;;7.50;1.85;;;7.50;99.90;;;;;;6246062;23;20012;-91
2023/04/04 09:16:22;;;;;;;6.13;2.20;;;7.60;99.90;;;;;;6219051;23;20077;-88
2023/04/04 09:18:48;;;;;;;8.07;2.00;;;7.70;99.90;;;;;;6217675;23;20014;-89
2023/04/04 09:21:14;;;;;;;6.15;2.00;;;7.80;99.90;;;;;;6218611;23;20099;-88
2023/04/04 09:23:40;;;;;;;6.05;2.20;;;7.90;99.90;;;;;;6217981;23;20392;-87
2023/04/04 09:26:05;;;;;;;5.03;2.20;;;8.00;99.90;;;;;;6218757;23;20016;-87
2023/04/04 09:28:32;;;;;;;7.97;2.40;;;8.10;99.90;;;;;;6218048;23;20095;-87
2023/04/04 09:31:04;;;;;;;6.78;2.40;;;8.10;99.90;;;;;;6244875;23;20023;-90
2023/04/04 09:33:32;;;;;;;5.85;1.90;;;8.30;99.90;;;;;;6245144;23;20478;-89
2023/04/04 09:36:01;;;;;;;10.85;2.63;;;8.40;99.90;;;;;;6245623;23;20494;-89
2023/04/04 09:38:30;;;;;;;5.90;1.90;;;8.40;99.90;;;;;;6217601;23;20078;-89
2023/04/04 09:40:56;;;;;;;5.25;2.28;;;8.50;99.90;;;;;;6219346;23;20027;-90
2023/04/04 09:43:25;;;;;;;6.50;2.00;;;8.50;99.90;;;;;;6245925;23;20012;-90
2023/04/04 09:45:53;;;;;;;6.57;2.15;;;8.70;99.90;;;;;;6217682;23;20016;-89
2023/04/04 09:48:31;;;;;;;6.63;2.45;;;8.70;99.90;;;;;;6218564;23;20012;-90
2023/04/04 09:51:00;;;;;;;5.63;2.22;;;8.80;99.90;;;;;;6219019;23;20454;-90
2023/04/04 09:53:26;;;;;;;5.50;2.20;;;8.90;99.90;;;;;;6244710;23;20023;-89
2023/04/04 09:55:54;;;;;;;7.95;2.10;;;9.00;99.90;;;;;;6219158;23;20012;-89
2023/04/04 09:58:27;;;;;;;4.82;1.88;;;9.10;99.90;;;;;;6245563;23;20012;-89
2023/04/04 10:01:00;;;;;;;5.85;1.92;;;9.20;99.90;;;;;;6218199;23;20095;-89
2023/04/04 10:03:27;;;;;;;6.15;2.30;;;9.30;99.90;;;;;;6218813;23;20091;-88
2023/04/04 10:05:58;;;;;;;5.47;2.10;;;9.40;99.90;;;;;;6244699;23;20023;-89
2023/04/04 10:08:26;;;;;;;7.13;2.40;;;9.50;99.90;;;;;;6218471;23;20008;-89
2023/04/04 10:10:56;;;;;;;6.95;2.08;;;9.60;99.90;;;;;;6245056;23;20016;-90
2023/04/04 10:13:30;;;;;;;7.07;2.13;;;9.70;99.90;;;;;;6219764;23;20444;-88
2023/04/04 10:15:57;;;;;;;6.68;1.90;;;9.80;99.90;;;;;;6219102;23;20066;-88
2023/04/04 10:18:26;;;;;;;5.45;2.10;;;9.90;99.90;;;;;;6247687;23;20336;-90
2023/04/04 10:20:53;;;;;;;6.20;2.20;;;10.00;99.90;;;;;;6219276;23;20016;-91
2023/04/04 10:23:22;;;;;;;6.95;2.42;;;10.10;99.90;;;;;;6247058;23;20378;-88
2023/04/04 10:25:48;;;;;;;6.97;1.98;;;10.10;99.90;;;;;;6220117;23;20016;-90
2023/04/04 10:28:16;;;;;;;6.00;2.35;;;10.30;99.90;;;;;;6221528;23;20318;-93
2023/04/04 10:30:46;;;;;;;5.97;2.10;;;10.30;99.90;;;;;;6222570;23;20016;-94
2023/04/04 10:33:50;;;;;;;5.43;2.05;;;10.40;99.90;;;;;;6250635;23;20047;-93
2023/04/04 10:36:21;;;;;;;6.10;2.40;;;10.50;99.90;;;;;;6166085;23;20016;-93
2023/04/04 10:38:56;;;;;;;5.97;2.35;;;10.50;99.90;;;;;;6247490;23;20023;-91
2023/04/04 10:41:24;;;;;;;6.40;2.20;;;10.50;99.90;;;;;;6221252;23;20062;-92
2023/04/04 10:43:55;;;;;;;5.93;2.50;;;10.50;99.90;;;;;;6248971;23;20012;-94
2023/04/04 10:46:29;;;;;;;6.47;2.17;;;10.50;99.50;;;;;;6221568;23;20027;-95
2023/04/04 10:48:56;;;;;;;6.05;2.40;;;10.50;96.60;;;;;;6221145;23;20027;-93
2023/04/04 10:51:22;;;;;;;6.68;2.58;;;10.50;97.70;;;;;;6248670;23;20035;-93
2023/04/04 10:53:49;;;;;;;5.45;2.40;;;10.60;99.40;;;;;;6195589;23;20016;-96
2023/04/04 10:56:16;;;;;;;5.03;2.22;;;10.70;99.90;;;;;;6221138;23;20090;-93
2023/04/04 10:58:44;;;;;;;5.30;2.40;;;10.80;99.90;;;;;;6223293;23;20008;-94
2023/04/04 11:01:15;;;;;;;6.00;2.65;;;10.80;99.90;;;;;;6219802;23;20016;-93
2023/04/04 11:04:15;;;;;;;6.55;2.42;;;11.00;99.90;;;;;;6248007;23;20012;-94
2023/04/04 11:07:04;;;;;;;7.10;2.85;;;11.00;99.90;;;;;;6219532;23;20016;-93
2023/04/04 11:09:52;;;;;;;6.00;2.50;;;11.10;99.90;;;;;;6219519;23;20016;-94
2023/04/04 11:12:37;;;;;;;7.32;2.80;;;11.20;99.90;;;;;;6220233;23;20336;-94
2023/04/04 11:15:03;;;;;;;6.05;2.50;;;11.30;99.90;;;;;;6219440;23;20015;-94
2023/04/04 11:17:47;;;;;;;7.45;2.22;;;11.40;99.90;;;;;;6246813;23;20019;-94
2023/04/04 11:20:38;;;;;;;4.75;2.22;;;11.60;99.90;;;;;;6223949;23;20012;-95
2023/04/04 11:23:05;;;;;;;6.75;2.50;;;11.60;99.90;;;;;;6245613;23;20022;-95
2023/04/04 11:25:31;;;;;;;5.43;2.88;;;11.70;99.90;;;;;;6246675;23;20023;-95
2023/04/04 11:27:58;;;;;;;5.15;2.47;;;11.80;99.90;;;;;;6260867;22;20031;-94
2023/04/04 11:30:27;;;;;;;5.50;2.63;;;11.90;99.90;;;;;;6278279;22;20049;-95
2023/04/04 11:32:57;;;;;;;5.90;2.50;;;12.00;99.90;;;;;;6251316;22;20011;-94
2023/04/04 11:35:23;;;;;;;5.80;2.63;;;12.10;99.90;;;;;;6251599;22;20019;-94
2023/04/04 11:37:52;;;;;;;4.88;2.50;;;12.20;99.90;;;;;;6278580;22;20331;-94
2023/04/04 11:40:18;;;;;;;6.70;2.95;;;12.20;99.90;;;;;;6251235;22;20090;-95
2023/04/04 11:42:49;;;;;;;6.07;2.40;;;12.30;99.90;;;;;;6278805;22;20130;-94
2023/04/04 11:45:19;;;;;;;6.15;2.40;;;12.30;99.90;;;;;;6278433;22;20016;-94
2023/04/04 11:47:49;;;;;;;5.25;2.50;;;12.40;99.90;;;;;;6251637;22;20027;-94
2023/04/04 11:50:15;;;;;;;5.10;2.42;;;12.30;99.90;;;;;;6278637;22;20016;-96
2023/04/04 11:52:42;;;;;;;5.28;2.60;;;12.30;99.90;;;;;;6250293;22;20038;-95
2023/04/04 11:55:21;;;;;;;6.57;2.92;;;12.40;99.90;;;;;;6277280;22;20020;-94
2023/04/04 11:57:50;;;;;;;4.70;2.60;;;12.40;99.90;;;;;;6256088;22;20020;-96
2023/04/04 12:00:31;;;;;;;8.55;3.13;;;12.50;99.90;;;;;;6295597;22;20016;-96
2023/04/04 12:02:57;;;;;;;6.70;2.70;;;12.50;97.60;;;;;;6271235;22;20026;-96
2023/04/04 12:05:25;;;;;;;9.23;3.10;;;12.50;98.70;;;;;;6269441;22;20019;-96
2023/04/04 12:07:51;;;;;;;7.70;4.20;;;12.60;99.70;;;;;;6269471;22;20095;-96
2023/04/04 12:10:18;;;;;;;5.63;2.75;;;12.60;97.40;;;;;;6291294;22;20043;-96
2023/04/04 12:12:46;;;;;;;6.95;2.90;;;12.60;97.70;;;;;;6255964;22;20016;-96
2023/04/04 12:15:16;;;;;;;7.03;2.70;;;12.60;99.20;;;;;;6258505;22;20149;-96
2023/04/04 12:17:45;;;;;;;7.15;2.95;;;12.70;99.80;;;;;;6288302;22;20343;-96
2023/04/04 12:20:14;;;;;;;5.35;2.70;;;12.70;99.90;;;;;;6258376;22;20043;-96
2023/04/04 12:22:39;;;;;;;6.70;2.60;;;12.70;99.60;;;;;;6252670;22;20016;-96
2023/04/04 12:25:06;;;;;;;6.50;2.55;;;12.70;98.30;;;;;;6255226;22;20068;-95
2023/04/04 12:27:32;;;;;;;5.43;2.42;;;12.60;95.60;;;;;;6251665;22;20050;-92
2023/04/04 12:29:59;;;;;;;6.90;2.97;;;12.60;93.50;;;;;;6280296;22;20545;-94
2023/04/04 12:32:26;;;;;;;7.55;2.80;;;12.50;95.30;;;;;;6249209;22;20016;-92
2023/04/04 12:34:51;;;;;;;6.00;2.67;;;12.60;97.30;;;;;;6249744;22;20014;-92
2023/04/04 12:37:20;;;;;;;6.25;2.90;;;12.80;98.10;;;;;;6251593;22;20053;-93
2023/04/04 12:39:51;;;;;;;5.80;2.58;;;12.80;98.50;;;;;;6250147;22;20023;-93
2023/04/04 12:42:21;;;;;;;5.40;2.40;;;12.90;98.80;;;;;;6249059;22;20016;-92
2023/04/04 12:44:52;;;;;;;6.15;2.83;;;12.90;96.90;;;;;;6277565;22;20095;-93
2023/04/04 12:47:21;;;;;;;6.53;2.75;;;12.80;96.00;;;;;;6249557;22;20012;-92
2023/04/04 12:49:47;;;;;;;7.00;2.72;;;12.80;95.50;;;;;;6249751;22;20066;-93
2023/04/04 12:52:22;;;;;;;6.53;2.50;;;12.80;94.80;;;;;;6249856;22;20015;-92
2023/04/04 12:54:51;;;;;;;5.15;2.25;;;12.80;95.60;;;;;;6276432;22;20023;-95
2023/04/04 12:57:19;;;;;;;5.65;2.80;;;12.80;93.50;;;;;;6249701;22;20093;-95